createdAt,value
2017-12-02T00:00:31.091Z,26.62
2017-12-02T00:02:58.581Z,26.70
2017-12-02T00:05:26.064Z,28.27
2017-12-02T00:07:53.527Z,26.05
2017-12-02T00:10:22.750Z,27.58
2017-12-02T00:26:02.768Z,28.40
2017-12-02T00:28:30.309Z,29.10
2017-12-02T00:30:57.828Z,29.80
2017-12-02T00:33:25.298Z,28.85
2017-12-02T00:35:52.790Z,31.37
2017-12-02T00:38:20.735Z,30.45
2017-12-02T00:40:48.279Z,29.52
2017-12-02T00:43:15.803Z,31.62
2017-12-02T00:45:43.261Z,30.52
2017-12-02T00:48:10.746Z,28.77
2017-12-02T00:50:38.243Z,28.40
2017-12-02T00:53:05.727Z,27.52
2017-12-02T00:55:33.187Z,28.65
2017-12-02T00:58:00.693Z,29.35
2017-12-02T01:00:28.163Z,27.35
2017-12-02T01:02:55.651Z,28.33
2017-12-02T01:05:23.129Z,28.05
2017-12-02T01:07:50.612Z,28.60
2017-12-02T01:10:18.075Z,29.23
2017-12-02T01:12:45.560Z,29.83
2017-12-02T01:15:13.039Z,30.35
2017-12-02T01:17:40.503Z,28.80
2017-12-02T01:20:08.028Z,28.42
2017-12-02T01:22:35.494Z,28.08
2017-12-02T01:25:03.186Z,27.80
2017-12-02T01:27:30.652Z,28.35
2017-12-02T01:29:58.095Z,29.12
2017-12-02T01:32:25.577Z,28.42
2017-12-02T01:34:53.045Z,27.45
2017-12-02T01:37:20.619Z,26.85
2017-12-02T01:39:48.086Z,27.75
2017-12-02T01:42:15.549Z,28.75
2017-12-02T01:44:43.010Z,29.05
2017-12-02T01:47:10.492Z,30.65
2017-12-02T01:49:37.943Z,29.33
2017-12-02T01:52:05.403Z,28.62
2017-12-02T01:54:32.891Z,28.27
2017-12-02T01:57:00.361Z,29.35
2017-12-02T01:59:27.856Z,28.10
2017-12-02T02:01:55.334Z,29.20
2017-12-02T02:04:22.803Z,27.17
2017-12-02T02:06:50.250Z,28.67
2017-12-02T02:09:17.722Z,28.27
2017-12-02T02:11:45.609Z,29.60
2017-12-02T02:14:13.093Z,30.90
2017-12-02T02:16:40.598Z,28.62
2017-12-02T02:19:08.115Z,27.55
2017-12-02T02:21:35.632Z,29.02
2017-12-02T02:24:03.128Z,30.17
2017-12-02T02:26:30.587Z,31.52
2017-12-02T02:28:59.071Z,28.98
2017-12-02T02:31:26.576Z,31.00
2017-12-02T02:33:54.464Z,29.20
2017-12-02T02:36:21.939Z,29.90
2017-12-02T02:38:49.408Z,28.75
2017-12-02T02:41:16.905Z,30.92
2017-12-02T02:43:44.380Z,29.65
2017-12-02T02:46:11.851Z,32.05
2017-12-02T02:48:39.338Z,28.92
2017-12-02T02:51:06.863Z,29.35
2017-12-02T02:53:34.362Z,29.12
2017-12-02T02:56:01.982Z,30.65
2017-12-02T02:58:29.458Z,27.40
2017-12-02T03:00:56.918Z,30.33
2017-12-02T03:03:24.439Z,30.80
2017-12-02T03:05:51.907Z,29.45
2017-12-02T03:08:19.360Z,30.60
2017-12-02T03:10:46.928Z,29.52
2017-12-02T03:13:14.391Z,31.27
2017-12-02T03:15:41.875Z,30.10
2017-12-02T03:18:09.370Z,31.35
2017-12-02T03:20:36.834Z,30.15
2017-12-02T03:23:04.308Z,34.33
2017-12-02T03:25:31.793Z,30.75
2017-12-02T03:27:59.274Z,32.33
2017-12-02T03:30:26.749Z,31.77
2017-12-02T03:32:54.263Z,30.80
2017-12-02T03:35:21.730Z,31.95
2017-12-02T03:37:49.212Z,32.00
2017-12-02T03:40:16.695Z,32.45
2017-12-02T03:42:44.160Z,35.10
2017-12-02T03:45:11.639Z,34.53
2017-12-02T03:47:39.123Z,34.30
2017-12-02T03:50:06.611Z,34.88
2017-12-02T03:52:34.083Z,36.17
2017-12-02T03:55:01.595Z,35.38
2017-12-02T03:57:29.068Z,35.45
2017-12-02T03:59:56.559Z,36.20
2017-12-02T04:02:24.143Z,34.80
2017-12-02T04:04:51.616Z,37.13
2017-12-02T04:07:19.140Z,35.10
2017-12-02T04:09:46.598Z,35.63
2017-12-02T04:12:14.126Z,36.22
2017-12-02T04:14:41.597Z,38.10
2017-12-02T04:17:09.060Z,35.67
2017-12-02T04:19:36.556Z,36.55
2017-12-02T04:22:04.028Z,35.97
2017-12-02T04:24:31.519Z,36.08
2017-12-02T04:26:59.047Z,38.17
2017-12-02T04:29:26.548Z,38.15
2017-12-02T04:31:54.011Z,36.08
2017-12-02T04:34:21.599Z,36.67
2017-12-02T04:36:49.068Z,37.28
2017-12-02T04:39:16.635Z,37.25
2017-12-02T04:41:44.144Z,37.30
2017-12-02T04:44:11.679Z,36.50
2017-12-02T04:46:39.148Z,39.00
2017-12-02T04:49:06.614Z,39.70
2017-12-02T04:51:34.103Z,39.45
2017-12-02T04:54:01.571Z,37.38
2017-12-02T04:56:29.047Z,39.53
2017-12-02T04:58:56.503Z,40.33
2017-12-02T05:01:24.025Z,39.67
2017-12-02T05:03:51.507Z,38.03
2017-12-02T05:06:19.934Z,38.03
2017-12-02T05:08:47.429Z,39.80
2017-12-02T05:11:14.995Z,40.05
2017-12-02T05:13:42.492Z,39.90
2017-12-02T05:16:09.971Z,40.12
2017-12-02T05:18:37.477Z,42.13
2017-12-02T05:21:04.967Z,42.10
2017-12-02T05:23:32.429Z,43.10
2017-12-02T05:25:59.921Z,44.90
2017-12-02T05:28:27.460Z,42.88
2017-12-02T05:30:54.939Z,45.45
2017-12-02T05:33:22.435Z,45.30
2017-12-02T05:35:49.940Z,46.72
2017-12-02T05:38:17.423Z,45.85
2017-12-02T05:40:44.928Z,47.13
2017-12-02T05:43:12.406Z,43.42
2017-12-02T05:45:39.872Z,45.05
2017-12-02T05:48:07.389Z,46.42
2017-12-02T05:50:34.883Z,44.38
2017-12-02T05:53:02.347Z,45.17
2017-12-02T05:55:29.843Z,48.00
2017-12-02T05:57:57.295Z,46.72
2017-12-02T06:00:24.765Z,44.15
2017-12-02T06:02:52.276Z,44.53
2017-12-02T06:05:19.763Z,42.90
2017-12-02T06:07:47.239Z,45.75
2017-12-02T06:10:14.727Z,43.63
2017-12-02T06:12:42.270Z,45.47
2017-12-02T06:15:09.756Z,44.28
2017-12-02T06:17:37.242Z,45.90
2017-12-02T06:20:04.721Z,47.13
2017-12-02T06:22:32.190Z,42.60
2017-12-02T06:24:59.662Z,46.25
2017-12-02T06:27:27.152Z,45.92
2017-12-02T06:29:54.632Z,45.03
2017-12-02T06:32:22.113Z,44.63
2017-12-02T06:34:49.682Z,47.20
2017-12-02T06:37:17.786Z,46.42
2017-12-02T06:39:45.822Z,47.83
2017-12-02T06:42:13.279Z,45.10
2017-12-02T06:44:40.811Z,48.92
2017-12-02T06:47:08.299Z,47.92
2017-12-02T06:49:35.775Z,50.00
2017-12-02T06:52:03.284Z,47.62
2017-12-02T06:54:30.769Z,44.95
2017-12-02T06:56:58.267Z,48.22
2017-12-02T06:59:25.778Z,46.15
2017-12-02T07:01:53.286Z,44.72
2017-12-02T07:04:20.792Z,44.92
2017-12-02T07:06:48.287Z,44.20
2017-12-02T07:09:15.776Z,44.50
2017-12-02T07:11:43.262Z,44.20
2017-12-02T07:14:10.775Z,44.88
2017-12-02T07:16:38.256Z,47.72
2017-12-02T07:19:05.772Z,52.60
2017-12-02T07:21:33.783Z,54.55
2017-12-02T07:24:01.286Z,49.30
2017-12-02T07:26:28.796Z,59.20
2017-12-02T07:28:56.257Z,43.22
2017-12-02T07:31:23.754Z,49.03
2017-12-02T07:33:51.255Z,48.63
2017-12-02T07:36:18.788Z,50.08
2017-12-02T07:38:46.304Z,46.15
2017-12-02T07:41:13.849Z,46.33
2017-12-02T07:43:41.340Z,44.05
2017-12-02T07:46:08.815Z,42.33
2017-12-02T07:48:36.299Z,40.47
2017-12-02T07:51:03.900Z,42.75
2017-12-02T07:53:31.353Z,41.58
2017-12-02T07:55:58.837Z,40.90
2017-12-02T07:58:26.326Z,40.78
2017-12-02T08:00:53.926Z,40.53
2017-12-02T08:03:21.468Z,39.00
2017-12-02T08:05:48.949Z,38.47
2017-12-02T08:08:16.456Z,38.08
2017-12-02T08:10:44.164Z,38.65
2017-12-02T08:13:11.746Z,37.78
2017-12-02T08:15:39.211Z,35.58
2017-12-02T08:18:06.704Z,36.95
2017-12-02T08:20:34.223Z,36.30
2017-12-02T08:23:01.828Z,34.35
2017-12-02T08:25:29.310Z,34.17
2017-12-02T08:27:56.971Z,33.35
2017-12-02T08:30:24.451Z,32.25
2017-12-02T08:32:51.941Z,32.70
2017-12-02T08:35:19.434Z,35.15
2017-12-02T08:37:46.928Z,32.60
2017-12-02T08:40:14.428Z,30.83
2017-12-02T08:42:41.915Z,31.23
2017-12-02T08:45:09.404Z,32.58
2017-12-02T08:47:36.888Z,30.45
2017-12-02T08:50:04.542Z,28.92
2017-12-02T08:52:32.054Z,29.63
2017-12-02T08:54:59.606Z,28.77
2017-12-02T08:57:27.078Z,27.90
2017-12-02T08:59:54.622Z,28.05
2017-12-02T09:02:22.141Z,29.37
2017-12-02T09:04:49.625Z,30.30
2017-12-02T09:07:17.127Z,27.75
2017-12-02T09:09:44.712Z,28.17
2017-12-02T09:12:12.324Z,26.35
2017-12-02T09:14:40.017Z,28.73
2017-12-02T09:17:09.009Z,24.83
2017-12-02T09:19:36.663Z,27.55
2017-12-02T09:22:04.406Z,27.52
2017-12-02T09:24:31.957Z,26.90
2017-12-02T09:27:00.037Z,25.12
2017-12-02T09:29:27.508Z,23.67
2017-12-02T09:31:55.781Z,24.52
2017-12-02T09:34:23.268Z,26.48
2017-12-02T09:36:50.771Z,24.58
2017-12-02T09:39:18.247Z,23.20
2017-12-02T09:41:45.800Z,24.58
2017-12-02T09:44:13.352Z,21.95
2017-12-02T09:46:40.823Z,24.55
2017-12-02T09:49:08.392Z,21.92
2017-12-02T09:51:35.897Z,24.02
2017-12-02T09:54:03.381Z,23.17
2017-12-02T09:56:30.869Z,22.85
2017-12-02T09:58:58.351Z,21.83
2017-12-02T10:01:25.824Z,22.30
2017-12-02T10:03:53.336Z,21.75
2017-12-02T10:06:20.803Z,21.12
2017-12-02T10:08:48.334Z,21.45
2017-12-02T10:11:15.824Z,19.08
2017-12-02T10:13:43.308Z,23.30
2017-12-02T10:16:10.859Z,19.77
2017-12-02T10:18:38.376Z,21.90
2017-12-02T10:21:05.863Z,22.25
2017-12-02T10:23:33.386Z,23.12
2017-12-02T10:26:00.844Z,20.50
2017-12-02T10:28:28.344Z,21.25
2017-12-02T10:30:55.843Z,19.65
2017-12-02T10:33:23.321Z,20.00
2017-12-02T10:35:50.808Z,21.85
2017-12-02T10:38:18.303Z,19.35
2017-12-02T10:40:45.767Z,20.45
2017-12-02T10:43:13.270Z,20.33
2017-12-02T10:45:40.788Z,20.15
2017-12-02T10:48:08.278Z,19.75
2017-12-02T10:50:35.778Z,19.70
2017-12-02T10:53:03.389Z,21.23
2017-12-02T10:55:30.884Z,19.85
2017-12-02T10:57:58.389Z,18.00
2017-12-02T11:00:25.847Z,18.00
2017-12-02T11:02:53.329Z,18.33
2017-12-02T11:05:20.866Z,18.50
2017-12-02T11:07:48.449Z,16.95
2017-12-02T11:10:16.640Z,16.87
2017-12-02T11:12:44.906Z,19.48
2017-12-02T11:15:13.359Z,17.90
2017-12-02T11:17:40.837Z,15.07
2017-12-02T11:20:08.399Z,17.05
2017-12-02T11:22:35.946Z,16.83
2017-12-02T11:25:03.483Z,16.40
2017-12-02T11:27:31.085Z,17.25
2017-12-02T11:29:58.663Z,16.83
2017-12-02T11:32:26.199Z,16.25
2017-12-02T11:34:53.765Z,16.77
2017-12-02T11:37:21.360Z,16.83
2017-12-02T11:39:48.880Z,17.55
2017-12-02T11:42:16.357Z,15.63
2017-12-02T11:44:43.832Z,16.05
2017-12-02T11:47:11.311Z,14.70
2017-12-02T11:49:38.813Z,14.87
2017-12-02T11:52:06.302Z,14.50
2017-12-02T11:54:33.788Z,14.50
2017-12-02T11:57:01.321Z,14.30
2017-12-02T11:59:29.027Z,14.10
2017-12-02T12:01:56.501Z,16.00
2017-12-02T12:04:23.967Z,15.80
2017-12-02T12:06:51.455Z,13.80
2017-12-02T12:09:18.935Z,13.50
2017-12-02T12:11:46.412Z,15.07
2017-12-02T12:14:13.912Z,14.60
2017-12-02T12:16:41.519Z,13.40
2017-12-02T12:19:09.050Z,13.70
2017-12-02T12:21:36.717Z,13.62
2017-12-02T12:24:04.261Z,12.60
2017-12-02T12:26:31.773Z,13.93
2017-12-02T12:29:04.131Z,12.48
2017-12-02T12:31:32.253Z,11.35
2017-12-02T12:33:59.818Z,12.50
2017-12-02T12:36:27.284Z,12.60
2017-12-02T12:38:54.782Z,14.63
2017-12-02T12:41:22.289Z,13.98
2017-12-02T12:43:49.808Z,13.77
2017-12-02T12:46:17.375Z,13.38
2017-12-02T12:48:44.860Z,14.00
2017-12-02T12:51:12.356Z,14.60
2017-12-02T12:53:39.839Z,14.02
2017-12-02T12:56:07.327Z,13.65
2017-12-02T12:58:34.843Z,14.35
2017-12-02T13:01:02.325Z,13.52
2017-12-02T13:03:29.799Z,15.18
2017-12-02T13:05:57.332Z,13.95
2017-12-02T13:08:24.864Z,14.38
2017-12-02T13:10:52.351Z,15.45
2017-12-02T13:13:19.817Z,15.57
2017-12-02T13:15:47.312Z,16.33
2017-12-02T13:18:14.809Z,15.15
2017-12-02T13:20:42.299Z,16.67
2017-12-02T13:23:09.801Z,17.02
2017-12-02T13:25:37.317Z,17.00
2017-12-02T13:28:05.650Z,16.65
2017-12-02T13:30:33.146Z,16.62
2017-12-02T13:33:00.604Z,17.08
2017-12-02T13:35:28.085Z,19.00
2017-12-02T13:37:55.668Z,17.58
2017-12-02T13:40:23.143Z,20.52
2017-12-02T13:42:50.640Z,19.42
2017-12-02T13:45:18.161Z,22.75
2017-12-02T13:47:45.652Z,21.95
2017-12-02T13:50:13.128Z,21.45
2017-12-02T13:52:40.613Z,20.30
2017-12-02T13:55:08.136Z,20.42
2017-12-02T13:57:35.663Z,18.15
2017-12-02T14:00:03.153Z,18.95
2017-12-02T14:02:30.629Z,16.90
2017-12-02T14:04:58.261Z,18.42
2017-12-02T14:07:25.724Z,20.47
2017-12-02T14:09:53.197Z,19.73
2017-12-02T14:12:20.727Z,21.57
2017-12-02T14:14:48.185Z,20.70
2017-12-02T14:17:15.686Z,20.67
2017-12-02T14:19:43.161Z,20.30
2017-12-02T14:22:10.643Z,20.70
2017-12-02T14:24:38.111Z,19.07
2017-12-02T14:27:05.568Z,18.90
2017-12-02T14:29:33.027Z,21.03
2017-12-02T14:32:00.532Z,18.50
2017-12-02T14:34:28.290Z,20.67
2017-12-02T14:36:55.891Z,19.83
2017-12-02T14:39:23.363Z,19.45
2017-12-02T14:41:50.836Z,17.60
2017-12-02T14:44:18.434Z,20.42
2017-12-02T14:46:45.920Z,18.67
2017-12-02T14:49:13.414Z,19.25
2017-12-02T14:51:40.887Z,19.70
2017-12-02T14:54:08.411Z,18.87
2017-12-02T14:56:35.903Z,20.90
2017-12-02T14:59:03.414Z,20.42
2017-12-02T15:01:30.877Z,21.02
2017-12-02T15:03:58.382Z,21.10
2017-12-02T15:06:25.860Z,21.42
2017-12-02T15:08:53.339Z,21.40
2017-12-02T15:11:20.855Z,22.80
2017-12-02T15:13:48.306Z,23.02
2017-12-02T15:16:15.832Z,22.73
2017-12-02T15:18:43.307Z,22.25
2017-12-02T15:21:25.480Z,23.48
2017-12-02T15:23:53.004Z,22.65
2017-12-02T15:26:20.576Z,22.33
2017-12-02T15:28:49.090Z,25.48
2017-12-02T15:31:16.670Z,25.40
2017-12-02T15:33:44.244Z,27.80
2017-12-02T15:36:11.772Z,25.52
2017-12-02T15:38:39.281Z,25.50
2017-12-02T15:41:06.800Z,25.40
2017-12-02T15:43:34.308Z,26.02
2017-12-02T15:46:01.889Z,25.00
2017-12-02T15:48:30.265Z,27.50
2017-12-02T15:50:57.869Z,25.90
2017-12-02T15:53:25.564Z,25.95
2017-12-02T15:55:53.096Z,27.33
2017-12-02T15:58:22.727Z,27.00
2017-12-02T16:00:50.736Z,25.40
2017-12-02T16:03:18.206Z,27.73
2017-12-02T16:05:45.820Z,29.08
2017-12-02T16:08:13.361Z,27.85
2017-12-02T16:13:13.079Z,26.40
2017-12-02T16:15:40.601Z,29.20
2017-12-02T16:18:08.102Z,29.12
2017-12-02T16:20:35.729Z,29.25
2017-12-02T16:23:03.365Z,28.55
2017-12-02T16:25:30.892Z,30.40
2017-12-02T16:27:58.471Z,27.75
2017-12-02T16:30:26.000Z,28.90
2017-12-02T16:32:54.000Z,28.67
2017-12-02T16:35:21.526Z,28.55
2017-12-02T16:37:49.032Z,28.05
2017-12-02T16:40:17.802Z,28.23
2017-12-02T16:42:48.622Z,28.50
2017-12-02T16:45:16.171Z,28.45
2017-12-02T16:47:43.684Z,29.40
2017-12-02T16:50:11.232Z,28.08
2017-12-02T16:52:38.766Z,28.23
2017-12-02T16:55:06.218Z,28.70
2017-12-02T16:57:33.773Z,28.40
2017-12-02T17:00:01.288Z,27.92
2017-12-02T17:02:28.793Z,29.37
2017-12-02T17:04:56.763Z,30.50
2017-12-02T17:07:24.240Z,27.92
2017-12-02T17:09:51.747Z,28.83
2017-12-02T17:12:19.991Z,28.02
2017-12-02T17:14:47.548Z,28.27
2017-12-02T17:17:15.190Z,30.10
2017-12-02T17:19:42.689Z,28.77
2017-12-02T17:22:10.196Z,29.67
2017-12-02T17:24:37.676Z,26.10
2017-12-02T17:27:05.241Z,30.02
2017-12-02T17:29:32.764Z,28.67
2017-12-02T17:32:00.240Z,27.35
2017-12-02T17:34:27.945Z,27.80
2017-12-02T17:36:57.510Z,32.38
2017-12-02T17:39:25.360Z,29.87
2017-12-02T17:41:53.370Z,27.30
2017-12-02T17:44:20.888Z,30.17
2017-12-02T17:46:48.372Z,30.08
2017-12-02T17:49:16.366Z,28.60
2017-12-02T17:51:44.282Z,30.42
2017-12-02T17:54:12.756Z,30.83
2017-12-02T17:56:40.340Z,30.83
2017-12-02T17:59:07.863Z,29.27
2017-12-02T18:01:35.387Z,28.98
2017-12-02T18:04:03.081Z,29.15
2017-12-02T18:06:30.557Z,28.77
2017-12-02T18:08:58.080Z,28.92
2017-12-02T18:11:25.591Z,30.10
2017-12-02T18:13:53.087Z,28.40
2017-12-02T18:16:20.599Z,31.15
2017-12-02T18:18:48.161Z,29.05
2017-12-02T18:21:15.632Z,31.50
2017-12-02T18:23:43.165Z,31.40
2017-12-02T18:26:10.682Z,31.70
2017-12-02T18:28:38.196Z,30.88
2017-12-02T18:31:05.736Z,32.80
2017-12-02T18:33:33.216Z,31.70
2017-12-02T18:36:00.782Z,28.90
2017-12-02T18:38:28.277Z,30.62
2017-12-02T18:40:55.811Z,31.48
2017-12-02T18:43:23.617Z,32.25
2017-12-02T18:45:54.760Z,30.25
2017-12-02T18:48:22.327Z,34.65
2017-12-02T18:50:51.164Z,29.85
2017-12-02T18:53:18.654Z,31.75
2017-12-02T18:55:46.169Z,32.83
2017-12-02T18:58:13.828Z,30.98
2017-12-02T19:00:41.340Z,32.45
2017-12-02T19:03:08.851Z,32.15
2017-12-02T19:05:36.349Z,29.80
2017-12-02T19:08:03.835Z,32.78
2017-12-02T19:10:32.562Z,31.83
2017-12-02T19:13:00.790Z,32.75
2017-12-02T19:15:28.484Z,32.25
2017-12-02T19:17:55.982Z,34.20
2017-12-02T19:20:23.490Z,32.60
2017-12-02T19:22:51.022Z,33.55
2017-12-02T19:25:18.672Z,31.40
2017-12-02T19:27:46.913Z,30.80
2017-12-02T19:30:14.414Z,28.90
2017-12-02T19:32:43.621Z,28.73
2017-12-02T19:35:11.187Z,27.87
2017-12-02T19:37:40.982Z,31.35
2017-12-02T19:53:07.222Z,28.90
2017-12-02T19:55:34.863Z,27.65
2017-12-02T19:58:02.368Z,29.92
2017-12-02T20:00:29.929Z,31.45
2017-12-02T20:02:57.480Z,31.20
2017-12-02T20:05:25.014Z,26.67
2017-12-02T20:07:52.745Z,30.05
2017-12-02T20:10:20.307Z,29.73
2017-12-02T20:12:47.907Z,29.20
2017-12-02T20:15:15.392Z,29.10
2017-12-02T20:17:42.910Z,29.00
2017-12-02T20:20:10.550Z,30.65
2017-12-02T20:22:38.396Z,29.35
2017-12-02T20:25:05.919Z,29.35
2017-12-02T20:27:33.432Z,29.55
2017-12-02T20:30:00.908Z,27.10
2017-12-02T20:32:28.416Z,27.48
2017-12-02T20:34:55.896Z,29.65
2017-12-02T20:37:23.437Z,28.05
2017-12-02T20:39:50.935Z,27.02
2017-12-02T20:42:18.483Z,26.77
2017-12-02T20:44:46.037Z,26.65
2017-12-02T20:47:13.590Z,26.70
2017-12-02T20:49:41.117Z,25.70
2017-12-02T20:52:08.573Z,24.83
2017-12-02T20:54:36.071Z,25.85
2017-12-02T20:57:03.613Z,24.77
2017-12-02T20:59:31.100Z,27.05
2017-12-02T21:01:58.640Z,23.83
2017-12-02T21:04:26.144Z,26.52
2017-12-02T21:06:53.714Z,24.37
2017-12-02T21:09:21.214Z,26.45
2017-12-02T21:11:48.795Z,26.92
2017-12-02T21:14:16.252Z,24.58
2017-12-02T21:16:44.690Z,23.35
2017-12-02T21:19:12.356Z,21.60
2017-12-02T21:21:39.855Z,22.40
2017-12-02T21:24:07.436Z,22.02
2017-12-02T21:26:34.913Z,21.25
2017-12-02T21:29:02.472Z,21.42
2017-12-02T21:31:30.123Z,22.75
2017-12-02T21:33:57.597Z,24.12
2017-12-02T21:36:25.109Z,24.33
2017-12-02T21:38:53.118Z,25.35
2017-12-02T21:41:20.704Z,26.92
2017-12-02T21:43:48.358Z,22.20
2017-12-02T21:46:16.989Z,23.87
2017-12-02T21:48:44.502Z,24.25
2017-12-02T21:51:12.109Z,22.83
2017-12-02T21:53:39.605Z,23.33
2017-12-02T21:56:07.127Z,23.12
2017-12-02T21:58:34.649Z,22.85
2017-12-02T22:01:02.545Z,21.85
2017-12-02T22:03:30.594Z,23.98
2017-12-02T22:05:58.128Z,22.20
2017-12-02T22:08:25.668Z,23.20
2017-12-02T22:10:53.146Z,23.20
2017-12-02T22:13:20.692Z,23.92
2017-12-02T22:15:48.255Z,24.00
2017-12-02T22:18:15.772Z,21.60
2017-12-02T22:20:43.248Z,25.33
2017-12-02T22:23:10.735Z,21.73
2017-12-02T22:25:38.274Z,24.05
2017-12-02T22:28:06.087Z,22.80
2017-12-02T22:30:33.551Z,24.40
2017-12-02T22:33:01.088Z,22.87
2017-12-02T22:35:29.032Z,23.95
2017-12-02T22:37:56.583Z,24.55
2017-12-02T22:40:24.070Z,25.02
2017-12-02T22:42:51.571Z,25.62
2017-12-02T22:45:19.087Z,23.27
2017-12-02T22:47:46.691Z,22.20
2017-12-02T22:50:14.164Z,23.45
2017-12-02T22:52:41.637Z,22.20
2017-12-02T22:55:09.154Z,22.80
2017-12-02T22:57:36.629Z,22.77
2017-12-02T23:00:04.121Z,22.55
2017-12-02T23:02:32.108Z,22.45
2017-12-02T23:05:00.577Z,23.75
2017-12-02T23:07:28.119Z,23.85
2017-12-02T23:09:55.624Z,20.88
2017-12-02T23:12:23.928Z,23.20
2017-12-02T23:14:51.456Z,22.33
2017-12-02T23:17:18.928Z,23.38
2017-12-02T23:19:47.445Z,24.87
2017-12-02T23:22:14.993Z,23.62
2017-12-02T23:24:42.499Z,24.92
2017-12-02T23:27:10.346Z,24.70
2017-12-02T23:29:37.902Z,23.27
2017-12-02T23:32:05.385Z,24.33
2017-12-02T23:34:32.876Z,24.55
2017-12-02T23:37:00.405Z,24.67
2017-12-02T23:39:27.938Z,23.77
2017-12-02T23:41:55.412Z,22.60
2017-12-02T23:44:22.945Z,23.15
2017-12-02T23:46:50.528Z,23.60
2017-12-02T23:49:18.049Z,24.65
2017-12-02T23:51:45.546Z,25.12
2017-12-02T23:54:13.010Z,23.80
2017-12-02T23:56:40.575Z,25.62
2017-12-02T23:59:08.112Z,24.27
